createdAt,value
2018-11-20T00:00:24.351Z,0.7
2018-11-20T00:01:31.569Z,0.8
2018-11-20T00:02:38.785Z,0.8
2018-11-20T00:03:45.722Z,0.7
2018-11-20T00:04:52.936Z,0.7
2018-11-20T00:06:00.140Z,0.7
2018-11-20T00:07:07.078Z,0.7
2018-11-20T00:08:14.288Z,0.7
2018-11-20T00:09:21.238Z,0.7
2018-11-20T00:10:28.437Z,0.8
2018-11-20T00:11:35.657Z,0.8
2018-11-20T00:12:42.581Z,0.8
2018-11-20T00:13:49.526Z,0.9
2018-11-20T00:14:56.728Z,0.9
2018-11-20T00:16:03.674Z,0.9
2018-11-20T00:17:10.322Z,1
2018-11-20T00:18:16.996Z,1
2018-11-20T00:19:23.650Z,1
2018-11-20T00:20:30.869Z,1
2018-11-20T00:21:37.793Z,1
2018-11-20T00:22:44.734Z,1
2018-11-20T00:23:51.660Z,1
2018-11-20T00:24:58.608Z,1
2018-11-20T00:26:05.533Z,1
2018-11-20T00:27:12.469Z,1
2018-11-20T00:28:19.390Z,0.9
2018-11-20T00:29:26.337Z,1
2018-11-20T00:30:33.262Z,1
2018-11-20T00:31:40.201Z,1.1
2018-11-20T00:32:47.409Z,1
2018-11-20T00:33:54.352Z,1
2018-11-20T00:35:01.327Z,1
2018-11-20T00:36:08.532Z,1
2018-11-20T00:37:15.727Z,1
2018-11-20T00:38:22.396Z,1
2018-11-20T00:39:29.334Z,1
2018-11-20T00:40:36.279Z,1.1
2018-11-20T00:41:43.219Z,1.1
2018-11-20T00:42:49.600Z,1.1
2018-11-20T00:43:56.528Z,1.2
2018-11-20T00:45:03.747Z,1.2
2018-11-20T00:46:10.724Z,1.1
2018-11-20T00:47:17.666Z,1.1
2018-11-20T00:48:24.865Z,1.1
2018-11-20T00:49:31.811Z,1.2
2018-11-20T00:50:38.735Z,1.1
2018-11-20T00:51:45.679Z,1.1
2018-11-20T00:52:52.875Z,1.1
2018-11-20T00:53:59.816Z,1.1
2018-11-20T00:55:07.016Z,1.1
2018-11-20T00:56:14.496Z,1.1
2018-11-20T00:57:21.703Z,1.1
2018-11-20T00:58:28.305Z,1.1
2018-11-20T00:59:35.517Z,1.1
2018-11-20T01:00:42.743Z,1.2
2018-11-20T01:01:49.128Z,1.1
2018-11-20T01:02:56.355Z,1.1
2018-11-20T01:04:03.280Z,1.2
2018-11-20T01:05:10.221Z,1.2
2018-11-20T01:06:17.422Z,1.2
2018-11-20T01:07:24.362Z,1.2
2018-11-20T01:08:31.567Z,1.1
2018-11-20T01:09:38.783Z,1.2
2018-11-20T01:10:45.702Z,1.2
2018-11-20T01:11:52.373Z,1.2
2018-11-20T01:12:59.578Z,1.2
2018-11-20T01:14:06.241Z,1.2
2018-11-20T01:15:13.437Z,1.2
2018-11-20T01:16:19.825Z,1.2
2018-11-20T01:17:26.210Z,1.1
2018-11-20T01:18:33.140Z,1.1
2018-11-20T01:19:39.800Z,1.1
2018-11-20T01:20:46.465Z,1.1
2018-11-20T01:21:53.668Z,1.2
2018-11-20T01:23:00.331Z,1.2
2018-11-20T01:24:07.263Z,1.1
2018-11-20T01:26:21.102Z,1.1
2018-11-20T01:27:28.043Z,1.1
2018-11-20T01:28:34.969Z,1.2
2018-11-20T01:29:41.914Z,1.2
2018-11-20T01:30:49.111Z,1.2
2018-11-20T01:31:55.770Z,1.2
2018-11-20T01:33:02.973Z,1.2
2018-11-20T01:34:10.184Z,1.2
2018-11-20T01:35:16.831Z,1.2
2018-11-20T01:36:23.780Z,1.1
2018-11-20T01:37:30.969Z,1.2
2018-11-20T01:38:37.912Z,1.2
2018-11-20T01:39:44.836Z,1.1
2018-11-20T01:40:51.774Z,1.3
2018-11-20T01:41:58.975Z,1.2
2018-11-20T01:43:05.925Z,1.3
2018-11-20T01:44:12.853Z,1.3
2018-11-20T01:45:19.783Z,1.3
2018-11-20T01:46:26.712Z,1.3
2018-11-20T01:47:33.925Z,1.2
2018-11-20T01:48:41.131Z,1.2
2018-11-20T01:49:48.075Z,1.2
2018-11-20T01:50:55.011Z,1.2
2018-11-20T01:52:01.944Z,1.2
2018-11-20T01:53:08.876Z,1.2
2018-11-20T01:54:16.100Z,1.3
2018-11-20T01:55:23.342Z,1.3
2018-11-20T01:56:30.562Z,1.3
2018-11-20T01:57:37.484Z,1.3
2018-11-20T01:58:44.705Z,1.3
2018-11-20T01:59:51.913Z,1.3
2018-11-20T02:00:59.130Z,1.3
2018-11-20T02:02:06.333Z,1.3
2018-11-20T02:03:13.276Z,1.3
2018-11-20T02:04:20.207Z,1.3
2018-11-20T02:05:27.419Z,1.3
2018-11-20T02:06:34.070Z,1.4
2018-11-20T02:07:41.295Z,1.3
2018-11-20T02:08:48.499Z,1.3
2018-11-20T02:09:55.729Z,1.3
2018-11-20T02:11:02.664Z,1.3
2018-11-20T02:12:09.332Z,1.4
2018-11-20T02:13:16.258Z,1.4
2018-11-20T02:14:23.193Z,1.4
2018-11-20T02:15:30.125Z,1.4
2018-11-20T02:16:36.780Z,1.5
2018-11-20T02:17:43.979Z,1.4
2018-11-20T02:18:50.918Z,1.4
2018-11-20T02:19:58.119Z,1.5
2018-11-20T02:21:05.061Z,1.5
2018-11-20T02:22:11.713Z,1.5
2018-11-20T02:23:18.924Z,1.5
2018-11-20T02:24:26.128Z,1.5
2018-11-20T02:25:33.337Z,1.5
2018-11-20T02:26:40.265Z,1.5
2018-11-20T02:27:47.214Z,1.5
2018-11-20T02:28:54.414Z,1.5
2018-11-20T02:30:01.630Z,1.5
2018-11-20T02:31:08.567Z,1.5
2018-11-20T02:32:15.517Z,1.5
2018-11-20T02:33:22.170Z,1.5
2018-11-20T02:34:29.089Z,1.5
2018-11-20T02:35:36.010Z,1.5
2018-11-20T02:36:42.962Z,1.5
2018-11-20T02:37:49.887Z,1.6
2018-11-20T02:38:56.832Z,1.6
2018-11-20T02:40:03.778Z,1.6
2018-11-20T02:41:10.987Z,1.6
2018-11-20T02:42:17.918Z,1.6
2018-11-20T02:43:24.840Z,1.6
2018-11-20T02:44:32.073Z,1.6
2018-11-20T02:45:39.289Z,1.6
2018-11-20T02:46:46.410Z,1.6
2018-11-20T02:47:53.342Z,1.6
2018-11-20T02:49:00.577Z,1.5
2018-11-20T02:50:07.777Z,1.5
2018-11-20T02:51:15.094Z,1.6
2018-11-20T02:52:21.759Z,1.6
2018-11-20T02:53:28.965Z,1.6
2018-11-20T02:54:35.908Z,1.6
2018-11-20T02:55:43.067Z,1.6
2018-11-20T02:56:49.719Z,1.6
2018-11-20T02:57:56.710Z,1.6
2018-11-20T02:59:03.383Z,1.6
2018-11-20T03:00:10.311Z,1.6
2018-11-20T03:01:16.974Z,1.6
2018-11-20T03:02:23.897Z,1.6
2018-11-20T03:03:30.890Z,1.6
2018-11-20T03:04:37.846Z,1.6
2018-11-20T03:05:44.521Z,1.6
2018-11-20T03:06:51.444Z,1.6
2018-11-20T03:07:58.110Z,1.6
2018-11-20T03:09:04.765Z,1.6
2018-11-20T03:10:11.705Z,1.6
2018-11-20T03:11:18.901Z,1.6
2018-11-20T03:12:25.863Z,1.5
2018-11-20T03:13:32.796Z,1.6
2018-11-20T03:14:39.734Z,1.5
2018-11-20T03:15:46.386Z,1.6
2018-11-20T03:16:53.052Z,1.6
2018-11-20T03:18:00.268Z,1.6
2018-11-20T03:19:06.935Z,1.6
2018-11-20T03:20:14.102Z,1.6
2018-11-20T03:21:20.754Z,1.6
2018-11-20T03:22:27.957Z,1.6
2018-11-20T03:23:35.176Z,1.6
2018-11-20T03:24:42.377Z,1.6
2018-11-20T03:25:49.594Z,1.6
2018-11-20T03:26:56.956Z,1.6
2018-11-20T03:28:04.530Z,1.6
2018-11-20T03:29:11.727Z,1.6
2018-11-20T03:30:18.672Z,1.6
2018-11-20T03:31:25.602Z,1.6
2018-11-20T03:32:32.537Z,1.6
2018-11-20T03:33:39.471Z,1.6
2018-11-20T03:34:46.132Z,1.6
2018-11-20T03:35:53.063Z,1.6
2018-11-20T03:37:00.318Z,1.7
2018-11-20T03:38:07.523Z,1.7
2018-11-20T03:39:14.741Z,1.7
2018-11-20T03:40:21.947Z,1.7
2018-11-20T03:41:28.672Z,1.7
2018-11-20T03:42:35.618Z,1.7
2018-11-20T03:43:42.552Z,1.7
2018-11-20T03:44:49.755Z,1.7
2018-11-20T03:45:56.700Z,1.7
2018-11-20T03:47:03.624Z,1.7
2018-11-20T03:48:10.011Z,1.7
2018-11-20T03:49:16.659Z,1.7
2018-11-20T03:50:23.599Z,1.7
2018-11-20T03:51:30.541Z,1.7
2018-11-20T03:52:37.471Z,1.8
2018-11-20T03:53:45.195Z,1.8
2018-11-20T03:54:52.408Z,1.8
2018-11-20T03:55:59.338Z,1.8
2018-11-20T03:57:06.275Z,1.8
2018-11-20T03:58:13.478Z,1.8
2018-11-20T03:59:20.705Z,1.8
2018-11-20T04:00:27.917Z,1.8
2018-11-20T04:01:35.133Z,1.8
2018-11-20T04:02:42.335Z,1.9
2018-11-20T04:03:49.280Z,1.8
2018-11-20T04:04:56.200Z,1.8
2018-11-20T04:06:03.415Z,1.8
2018-11-20T04:07:10.621Z,1.8
2018-11-20T04:08:17.568Z,1.8
2018-11-20T04:09:24.777Z,1.8
2018-11-20T04:10:31.695Z,1.8
2018-11-20T04:11:38.637Z,1.7
2018-11-20T04:12:45.579Z,1.7
2018-11-20T04:13:52.509Z,1.7
2018-11-20T04:14:59.444Z,1.7
2018-11-20T04:16:06.103Z,1.7
2018-11-20T04:17:13.312Z,1.7
2018-11-20T04:18:20.526Z,1.7
2018-11-20T04:19:27.469Z,1.7
2018-11-20T04:20:34.392Z,1.7
2018-11-20T04:21:41.340Z,1.7
2018-11-20T04:22:48.275Z,1.7
2018-11-20T04:23:55.487Z,1.6
2018-11-20T04:25:02.415Z,1.6
2018-11-20T04:26:09.356Z,1.6
2018-11-20T04:27:16.555Z,1.6
2018-11-20T04:28:22.942Z,1.6
2018-11-20T04:29:29.591Z,1.6
2018-11-20T04:30:36.253Z,1.6
2018-11-20T04:31:43.184Z,1.6
2018-11-20T04:32:50.405Z,1.6
2018-11-20T04:33:57.327Z,1.6
2018-11-20T04:35:04.277Z,1.6
2018-11-20T04:36:11.479Z,1.6
2018-11-20T04:37:18.151Z,1.6
2018-11-20T04:38:25.080Z,1.5
2018-11-20T04:39:32.028Z,1.6
2018-11-20T04:40:38.959Z,1.5
2018-11-20T04:41:46.181Z,1.5
2018-11-20T04:42:53.387Z,1.6
2018-11-20T04:44:00.610Z,1.6
2018-11-20T04:45:07.531Z,1.6
2018-11-20T04:46:14.194Z,1.6
2018-11-20T04:47:21.121Z,1.6
2018-11-20T04:48:28.065Z,1.6
2018-11-20T04:49:34.999Z,1.6
2018-11-20T04:50:41.950Z,1.6
2018-11-20T04:51:48.606Z,1.6
2018-11-20T04:52:55.831Z,1.6
2018-11-20T04:54:03.037Z,1.5
2018-11-20T04:55:09.974Z,1.6
2018-11-20T04:56:16.638Z,1.5
2018-11-20T04:57:23.893Z,1.6
2018-11-20T04:58:30.559Z,1.5
2018-11-20T04:59:37.231Z,1.5
2018-11-20T05:00:44.159Z,1.5
2018-11-20T05:01:51.366Z,1.5
2018-11-20T05:02:58.576Z,1.5
2018-11-20T05:04:05.794Z,1.4
2018-11-20T05:05:12.996Z,1.4
2018-11-20T05:06:19.656Z,1.4
2018-11-20T05:07:26.858Z,1.4
2018-11-20T05:08:34.082Z,1.4
2018-11-20T05:09:41.021Z,1.4
2018-11-20T05:10:47.979Z,1.4
2018-11-20T05:11:55.179Z,1.4
2018-11-20T05:13:01.910Z,1.3
2018-11-20T05:14:08.853Z,1.3
2018-11-20T05:15:15.534Z,1.3
2018-11-20T05:16:22.467Z,1.3
2018-11-20T05:17:29.683Z,1.3
2018-11-20T05:18:36.069Z,1.3
2018-11-20T05:19:43.268Z,1.3
2018-11-20T05:20:50.224Z,1.3
2018-11-20T05:21:57.208Z,1.3
2018-11-20T05:23:04.136Z,1.3
2018-11-20T05:24:10.544Z,1.3
2018-11-20T05:25:17.468Z,1.3
2018-11-20T05:26:24.691Z,1.3
2018-11-20T05:27:31.898Z,1.3
2018-11-20T05:28:38.837Z,1.4
2018-11-20T05:29:45.769Z,1.3
2018-11-20T05:30:52.839Z,1.5
2018-11-20T05:31:59.805Z,1.5
2018-11-20T05:33:07.029Z,1.5
2018-11-20T05:34:14.228Z,1.5
2018-11-20T05:35:21.446Z,1.5
2018-11-20T05:36:28.093Z,1.5
2018-11-20T05:37:35.025Z,1.4
2018-11-20T05:38:41.959Z,1.5
2018-11-20T05:39:48.626Z,1.5
2018-11-20T05:40:55.829Z,1.5
2018-11-20T05:42:03.052Z,1.5
2018-11-20T05:43:10.251Z,1.5
2018-11-20T05:44:17.472Z,1.6
2018-11-20T05:45:24.396Z,1.6
2018-11-20T05:46:31.619Z,1.6
2018-11-20T05:47:38.873Z,1.6
2018-11-20T05:48:46.094Z,1.6
2018-11-20T05:49:53.024Z,1.5
2018-11-20T05:51:00.240Z,1.6
2018-11-20T05:52:07.446Z,1.6
2018-11-20T05:53:14.386Z,1.6
2018-11-20T05:54:21.338Z,1.7
2018-11-20T05:55:28.285Z,1.7
2018-11-20T05:56:35.213Z,1.6
2018-11-20T05:57:42.161Z,1.6
2018-11-20T05:58:49.366Z,1.7
2018-11-20T05:59:56.575Z,1.6
2018-11-20T06:01:03.506Z,1.7
2018-11-20T06:02:10.723Z,1.6
2018-11-20T06:03:17.090Z,1.7
2018-11-20T06:04:24.312Z,1.7
2018-11-20T06:05:31.243Z,1.7
2018-11-20T06:06:38.481Z,1.8
2018-11-20T06:07:45.689Z,1.8
2018-11-20T06:08:52.634Z,1.9
2018-11-20T06:09:59.835Z,1.9
2018-11-20T06:11:06.770Z,1.9
2018-11-20T06:12:13.969Z,1.9
2018-11-20T06:13:21.184Z,1.9
2018-11-20T06:14:27.844Z,1.9
2018-11-20T06:15:34.796Z,1.9
2018-11-20T06:16:41.444Z,1.9
2018-11-20T06:17:48.656Z,1.9
2018-11-20T06:18:55.354Z,1.8
2018-11-20T06:20:02.849Z,1.9
2018-11-20T06:21:10.046Z,1.9
2018-11-20T06:22:17.266Z,1.9
2018-11-20T06:23:24.186Z,1.9
2018-11-20T06:24:31.120Z,2
2018-11-20T06:25:38.057Z,2
2018-11-20T06:26:44.996Z,2
2018-11-20T06:27:52.199Z,2
2018-11-20T06:28:59.134Z,2
2018-11-20T06:30:06.444Z,2
2018-11-20T06:31:13.376Z,2
2018-11-20T06:32:20.033Z,2
2018-11-20T06:33:26.970Z,2
2018-11-20T06:34:33.947Z,2
2018-11-20T06:35:41.010Z,2.1
2018-11-20T06:36:48.223Z,2
2018-11-20T06:37:55.151Z,2
2018-11-20T06:39:02.352Z,2
2018-11-20T06:40:09.571Z,2
2018-11-20T06:41:17.069Z,2
2018-11-20T06:42:23.814Z,2
2018-11-20T06:43:30.738Z,2.1
2018-11-20T06:44:37.130Z,2.1
2018-11-20T06:45:44.332Z,2.1
2018-11-20T06:46:51.532Z,2.1
2018-11-20T06:47:58.462Z,2.1
2018-11-20T06:49:05.391Z,2.1
2018-11-20T06:50:12.325Z,2.1
2018-11-20T06:51:19.537Z,2.1
2018-11-20T06:52:26.467Z,2.2
2018-11-20T06:53:33.684Z,2.2
2018-11-20T06:54:41.196Z,2.1
2018-11-20T06:55:48.399Z,2.1
2018-11-20T06:56:55.608Z,2.1
2018-11-20T06:58:02.576Z,2.1
2018-11-20T06:59:09.509Z,2.1
2018-11-20T07:00:16.448Z,2.1
2018-11-20T07:01:23.208Z,2.1
2018-11-20T07:02:30.601Z,2.1
2018-11-20T07:03:37.839Z,2.2
2018-11-20T07:04:44.490Z,2.1
2018-11-20T07:05:51.690Z,2.2
2018-11-20T07:06:58.664Z,2.2
2018-11-20T07:08:06.148Z,2.1
2018-11-20T07:09:14.079Z,2.1
2018-11-20T07:10:21.293Z,2.1
2018-11-20T07:11:28.243Z,2.1
2018-11-20T07:12:35.449Z,2.1
2018-11-20T07:13:42.660Z,2.2
2018-11-20T07:14:49.858Z,2.2
2018-11-20T07:15:57.760Z,2.2
2018-11-20T07:17:06.219Z,2.2
2018-11-20T07:18:13.160Z,2.2
2018-11-20T07:19:20.370Z,2.2
2018-11-20T07:20:27.577Z,2.2
2018-11-20T07:21:34.770Z,2.2
2018-11-20T07:22:41.902Z,2.2
2018-11-20T07:23:48.955Z,2.2
2018-11-20T07:24:56.168Z,2.2
2018-11-20T07:26:03.368Z,2.2
2018-11-20T07:27:10.815Z,2.2
2018-11-20T07:28:17.457Z,2.2
2018-11-20T07:29:24.489Z,2.2
2018-11-20T07:30:31.936Z,2.2
2018-11-20T07:31:39.628Z,2.3
2018-11-20T07:32:47.213Z,2.3
2018-11-20T07:33:54.144Z,2.3
2018-11-20T07:35:01.252Z,2.2
2018-11-20T07:36:08.967Z,2.3
2018-11-20T07:37:17.592Z,2.3
2018-11-20T07:38:25.896Z,2.3
2018-11-20T07:39:33.209Z,2.3
2018-11-20T07:40:40.161Z,2.3
2018-11-20T07:41:47.358Z,2.3
2018-11-20T07:42:54.576Z,2.3
2018-11-20T07:44:01.824Z,2.3
2018-11-20T07:45:09.184Z,2.4
2018-11-20T07:46:16.105Z,2.3
2018-11-20T07:47:23.319Z,2.4
2018-11-20T07:48:29.963Z,2.4
2018-11-20T07:49:37.179Z,2.4
2018-11-20T07:50:44.397Z,2.4
2018-11-20T07:51:51.610Z,2.4
2018-11-20T07:52:58.537Z,2.4
2018-11-20T07:54:05.752Z,2.4
2018-11-20T07:55:12.471Z,2.4
2018-11-20T07:56:19.888Z,2.4
2018-11-20T07:57:27.203Z,2.4
2018-11-20T07:58:34.462Z,2.4
2018-11-20T07:59:41.391Z,2.4
2018-11-20T08:00:48.321Z,2.5
2018-11-20T08:01:55.524Z,2.5
2018-11-20T08:03:02.736Z,2.5
2018-11-20T08:04:09.664Z,2.5
2018-11-20T08:05:16.910Z,2.5
2018-11-20T08:06:24.118Z,2.5
2018-11-20T08:07:31.334Z,2.5
2018-11-20T08:08:38.384Z,2.5
2018-11-20T08:09:46.284Z,2.5
2018-11-20T08:10:53.665Z,2.5
2018-11-20T08:12:00.886Z,2.5
2018-11-20T08:13:08.060Z,2.6
2018-11-20T08:14:15.003Z,2.6
2018-11-20T08:15:22.312Z,2.6
2018-11-20T08:16:29.756Z,2.6
2018-11-20T08:17:36.962Z,2.6
2018-11-20T08:18:44.177Z,2.6
2018-11-20T08:19:51.121Z,2.6
2018-11-20T08:20:58.336Z,2.6
2018-11-20T08:22:05.546Z,2.6
2018-11-20T08:23:11.955Z,2.6
2018-11-20T08:24:19.160Z,2.6
2018-11-20T08:25:25.938Z,2.7
2018-11-20T08:26:33.565Z,2.7
2018-11-20T08:27:40.246Z,2.7
2018-11-20T08:28:47.566Z,2.7
2018-11-20T08:29:54.285Z,2.7
2018-11-20T08:31:01.621Z,2.7
2018-11-20T08:32:09.130Z,2.7
2018-11-20T08:33:16.062Z,2.7
2018-11-20T08:34:23.483Z,2.7
2018-11-20T08:35:31.029Z,2.7
2018-11-20T08:36:37.978Z,2.7
2018-11-20T08:37:45.191Z,2.7
2018-11-20T08:38:52.138Z,2.7
2018-11-20T08:39:58.789Z,2.7
2018-11-20T08:41:05.730Z,2.7
2018-11-20T08:42:13.030Z,2.7
2018-11-20T08:43:20.525Z,2.7
2018-11-20T08:44:27.463Z,2.7
2018-11-20T08:45:34.400Z,2.7
2018-11-20T08:46:41.323Z,2.7
2018-11-20T08:47:48.894Z,2.8
2018-11-20T08:48:56.542Z,2.8
2018-11-20T08:50:03.466Z,2.8
2018-11-20T08:51:10.392Z,2.8
2018-11-20T08:52:17.607Z,2.8
2018-11-20T08:53:24.859Z,2.8
2018-11-20T08:54:32.150Z,2.8
2018-11-20T08:55:39.349Z,2.8
2018-11-20T08:56:46.572Z,2.8
2018-11-20T08:57:53.498Z,2.8
2018-11-20T08:59:00.696Z,2.8
2018-11-20T09:00:07.660Z,2.8
2018-11-20T09:01:14.872Z,2.8
2018-11-20T09:02:21.846Z,2.8
2018-11-20T09:03:28.453Z,2.8
2018-11-20T09:04:35.388Z,2.8
2018-11-20T09:05:42.326Z,2.9
2018-11-20T09:06:49.253Z,2.9
2018-11-20T09:07:56.487Z,2.9
2018-11-20T09:09:03.141Z,2.8
2018-11-20T09:10:10.281Z,2.9
2018-11-20T09:11:17.254Z,2.9
2018-11-20T09:12:24.203Z,2.9
2018-11-20T09:13:31.160Z,2.9
2018-11-20T09:14:38.381Z,2.9
2018-11-20T09:15:45.599Z,2.9
2018-11-20T09:16:52.506Z,2.9
2018-11-20T09:17:59.551Z,2.9
2018-11-20T09:19:06.675Z,2.9
2018-11-20T09:20:13.447Z,3
2018-11-20T09:21:21.184Z,3
2018-11-20T09:22:28.591Z,3
2018-11-20T09:23:35.575Z,3
2018-11-20T09:24:42.499Z,3
2018-11-20T09:25:49.676Z,3
2018-11-20T09:26:56.882Z,3
2018-11-20T09:28:03.883Z,3
2018-11-20T09:29:11.608Z,3
2018-11-20T09:30:18.822Z,3
2018-11-20T09:31:25.745Z,3
2018-11-20T09:32:32.417Z,3
2018-11-20T09:33:39.080Z,3
2018-11-20T09:34:45.806Z,3
2018-11-20T09:35:52.802Z,3
2018-11-20T09:37:00.023Z,3
2018-11-20T09:38:07.221Z,3
2018-11-20T09:39:14.450Z,3
2018-11-20T09:40:21.112Z,3
2018-11-20T09:41:28.042Z,3.1
2018-11-20T09:42:34.969Z,3.1
2018-11-20T09:43:41.633Z,3.1
2018-11-20T09:44:48.835Z,3.1
2018-11-20T09:45:55.497Z,3.1
2018-11-20T09:47:02.944Z,3
2018-11-20T09:48:10.496Z,3
2018-11-20T09:49:17.152Z,3
2018-11-20T09:50:24.379Z,3
2018-11-20T09:51:31.582Z,3
2018-11-20T09:52:38.442Z,3
2018-11-20T09:53:45.282Z,3
2018-11-20T09:54:51.951Z,2.9
2018-11-20T09:55:58.874Z,2.8
2018-11-20T09:57:05.833Z,2.7
2018-11-20T09:58:12.481Z,2.5
2018-11-20T09:59:19.637Z,2.4
2018-11-20T10:00:27.160Z,2.3
2018-11-20T10:01:34.114Z,2.2
2018-11-20T10:02:41.318Z,2.2
2018-11-20T10:03:48.374Z,2.2
2018-11-20T10:04:55.937Z,2.1
2018-11-20T10:06:03.156Z,2
2018-11-20T10:07:10.596Z,1.9
2018-11-20T10:08:17.781Z,1.9
2018-11-20T10:09:24.994Z,1.9
2018-11-20T10:10:32.220Z,1.9
2018-11-20T10:11:39.428Z,1.9
2018-11-20T10:12:46.636Z,1.9
2018-11-20T10:13:53.617Z,1.8
2018-11-20T10:15:00.617Z,1.7
2018-11-20T10:16:08.858Z,1.7
2018-11-20T10:17:16.078Z,1.7
2018-11-20T10:18:23.339Z,1.7
2018-11-20T10:19:30.274Z,1.7
2018-11-20T10:20:37.219Z,1.6
2018-11-20T10:21:44.675Z,1.6
2018-11-20T10:22:51.680Z,1.6
2018-11-20T10:23:58.898Z,1.6
2018-11-20T10:25:05.750Z,1.6
2018-11-20T10:26:13.595Z,1.6
2018-11-20T10:27:20.976Z,1.6
2018-11-20T10:28:27.920Z,1.6
2018-11-20T10:29:34.843Z,1.6
2018-11-20T10:30:42.060Z,1.5
2018-11-20T10:31:48.996Z,1.5
2018-11-20T10:32:56.214Z,1.5
2018-11-20T10:34:18.105Z,1.4
2018-11-20T10:35:25.174Z,1.4
2018-11-20T10:36:32.162Z,1.4
2018-11-20T10:37:39.378Z,1.5
2018-11-20T10:38:46.311Z,1.4
2018-11-20T10:39:53.257Z,1.4
2018-11-20T10:41:00.184Z,1.4
2018-11-20T10:42:07.416Z,1.4
2018-11-20T10:43:14.350Z,1.4
2018-11-20T10:44:21.568Z,1.4
2018-11-20T10:45:28.765Z,1.4
2018-11-20T10:46:36.441Z,1.4
2018-11-20T10:47:43.479Z,1.5
2018-11-20T10:48:50.419Z,1.5
2018-11-20T10:49:57.620Z,1.5
2018-11-20T10:51:04.912Z,1.5
2018-11-20T10:52:11.934Z,1.5
2018-11-20T10:53:19.136Z,1.5
2018-11-20T10:54:26.073Z,1.6
2018-11-20T10:55:32.739Z,1.6
2018-11-20T10:56:39.388Z,1.6
2018-11-20T10:57:46.325Z,1.6
2018-11-20T10:58:53.266Z,1.6
2018-11-20T11:00:00.486Z,1.6
2018-11-20T11:01:07.428Z,1.6
2018-11-20T11:02:14.103Z,1.6
2018-11-20T11:03:21.042Z,1.6
2018-11-20T11:04:27.952Z,1.6
2018-11-20T11:05:34.602Z,1.6
2018-11-20T11:06:42.001Z,1.6
2018-11-20T11:07:49.722Z,1.5
2018-11-20T11:08:57.482Z,1.5
2018-11-20T11:10:04.686Z,1.5
2018-11-20T11:11:11.340Z,1.6
2018-11-20T11:12:18.563Z,1.6
2018-11-20T11:13:25.508Z,1.6
2018-11-20T11:14:32.660Z,1.6
2018-11-20T11:15:39.838Z,1.6
2018-11-20T11:16:47.051Z,1.6
2018-11-20T11:17:53.995Z,1.6
2018-11-20T11:19:00.934Z,1.6
2018-11-20T11:20:08.210Z,1.6
2018-11-20T11:21:15.147Z,1.6
2018-11-20T11:22:22.086Z,1.6
2018-11-20T11:23:29.291Z,1.6
2018-11-20T11:24:35.692Z,1.6
2018-11-20T11:25:42.892Z,1.6
2018-11-20T11:26:50.114Z,1.6
2018-11-20T11:27:57.034Z,1.7
2018-11-20T11:29:03.985Z,1.7
2018-11-20T11:30:11.267Z,1.7
2018-11-20T11:31:18.502Z,1.8
2018-11-20T11:32:25.704Z,1.8
2018-11-20T11:33:32.673Z,1.8
2018-11-20T11:34:39.608Z,1.8
2018-11-20T11:35:46.553Z,1.9
2018-11-20T11:36:53.758Z,1.8
2018-11-20T11:38:00.431Z,1.8
2018-11-20T11:39:07.363Z,1.8
2018-11-20T11:40:14.313Z,1.7
2018-11-20T11:41:21.235Z,1.8
2018-11-20T11:42:28.447Z,1.8
2018-11-20T11:43:35.659Z,1.8
2018-11-20T11:44:42.865Z,1.8
2018-11-20T11:45:49.854Z,1.8
2018-11-20T11:46:56.529Z,1.8
2018-11-20T11:48:03.467Z,1.8
2018-11-20T11:49:10.134Z,1.9
2018-11-20T11:50:17.052Z,1.8
2018-11-20T11:51:25.521Z,1.9
2018-11-20T11:52:32.313Z,1.9
2018-11-20T11:53:39.255Z,1.9
2018-11-20T11:54:46.225Z,1.8
2018-11-20T11:55:53.460Z,1.8
2018-11-20T11:57:00.399Z,1.8
2018-11-20T11:58:07.067Z,1.9
2018-11-20T11:59:13.990Z,1.9
2018-11-20T12:00:21.216Z,1.9
2018-11-20T12:03:41.432Z,1.9
2018-11-20T12:04:48.091Z,1.9
2018-11-20T12:05:56.526Z,1.9
2018-11-20T12:07:03.742Z,1.9
2018-11-20T12:08:10.402Z,1.9
2018-11-20T12:09:17.340Z,1.9
2018-11-20T12:10:24.546Z,1.9
2018-11-20T12:11:31.216Z,1.9
2018-11-20T12:12:37.587Z,1.9
2018-11-20T12:13:44.802Z,2
2018-11-20T12:14:52.098Z,2
2018-11-20T12:15:59.317Z,2
2018-11-20T12:17:06.532Z,2
2018-11-20T12:18:13.756Z,1.9
2018-11-20T12:19:20.960Z,2
2018-11-20T12:20:27.905Z,1.9
2018-11-20T12:21:34.874Z,2
2018-11-20T12:22:42.070Z,2
2018-11-20T12:23:49.272Z,2
2018-11-20T12:24:56.489Z,2
2018-11-20T12:26:03.144Z,2
2018-11-20T12:27:10.089Z,2
2018-11-20T12:28:16.851Z,2
2018-11-20T12:29:24.100Z,2
2018-11-20T12:30:34.771Z,2
2018-11-20T12:31:42.609Z,2
2018-11-20T12:32:49.964Z,2.1
2018-11-20T12:34:00.588Z,2.1
2018-11-20T12:35:07.789Z,2.1
2018-11-20T12:36:14.748Z,2.1
2018-11-20T12:37:24.824Z,2.1
2018-11-20T12:38:31.766Z,2.2
2018-11-20T12:39:41.347Z,2.2
2018-11-20T12:40:51.171Z,2.2
2018-11-20T12:41:58.378Z,2.2
2018-11-20T12:43:05.314Z,2.2
2018-11-20T12:44:12.248Z,2.2
2018-11-20T12:45:19.469Z,2.2
2018-11-20T12:46:26.672Z,2.2
2018-11-20T12:47:33.882Z,2.2
2018-11-20T12:48:40.907Z,2.2
2018-11-20T12:49:47.584Z,2.2
2018-11-20T12:50:58.767Z,2.2
2018-11-20T12:52:06.464Z,2.2
2018-11-20T12:53:13.670Z,2.2
2018-11-20T12:54:20.889Z,2.2
2018-11-20T12:55:27.841Z,2.2
2018-11-20T12:56:35.055Z,2.2
2018-11-20T12:57:41.998Z,2.2
2018-11-20T12:58:48.671Z,2.3
2018-11-20T12:59:55.885Z,2.2
2018-11-20T13:01:03.115Z,2.2
2018-11-20T13:02:10.318Z,2.2
2018-11-20T13:03:17.537Z,2.2
2018-11-20T13:04:24.467Z,2.2
2018-11-20T13:05:31.695Z,2.2
2018-11-20T13:06:38.909Z,2.2
2018-11-20T13:07:46.247Z,2.2
2018-11-20T13:08:52.906Z,2.2
2018-11-20T13:10:00.896Z,2.2
2018-11-20T13:11:07.686Z,2.2
2018-11-20T13:12:14.632Z,2.2
2018-11-20T13:13:21.840Z,2.2
2018-11-20T13:14:29.055Z,2.3
2018-11-20T13:15:35.986Z,2.3
2018-11-20T13:16:42.926Z,2.3
2018-11-20T13:17:49.857Z,2.2
2018-11-20T13:18:56.795Z,2.2
2018-11-20T13:20:05.934Z,2.2
2018-11-20T13:21:14.435Z,2.2
2018-11-20T13:22:21.360Z,2.3
2018-11-20T13:23:31.531Z,2.3
2018-11-20T13:24:38.806Z,2.4
2018-11-20T13:25:46.036Z,2.3
2018-11-20T13:26:52.965Z,2.4
2018-11-20T13:27:59.910Z,2.4
2018-11-20T13:29:06.846Z,2.4
2018-11-20T13:30:14.071Z,2.3
2018-11-20T13:31:21.269Z,2.2
2018-11-20T13:32:28.240Z,2.3
2018-11-20T13:33:35.185Z,2.3
2018-11-20T13:34:42.414Z,2.3
2018-11-20T13:35:49.094Z,2.4
2018-11-20T13:36:56.319Z,2.4
2018-11-20T13:38:03.522Z,2.3
2018-11-20T13:39:13.828Z,2.3
2018-11-20T13:40:20.864Z,2.3
2018-11-20T13:41:27.800Z,2.4
2018-11-20T13:42:34.741Z,2.4
2018-11-20T13:43:41.139Z,2.4
2018-11-20T13:44:48.345Z,2.4
2018-11-20T13:45:55.598Z,2.4
2018-11-20T13:47:04.528Z,2.4
2018-11-20T13:48:11.488Z,2.4
2018-11-20T13:49:18.143Z,2.4
2018-11-20T13:50:25.095Z,2.4
2018-11-20T13:51:32.381Z,2.4
2018-11-20T13:52:39.606Z,2.4
2018-11-20T13:53:46.821Z,2.4
2018-11-20T13:54:53.929Z,2.4
2018-11-20T13:56:00.849Z,2.4
2018-11-20T13:57:08.067Z,2.4
2018-11-20T13:58:14.464Z,2.4
2018-11-20T13:59:21.413Z,2.4
2018-11-20T14:00:28.352Z,2.4
2018-11-20T14:01:35.287Z,2.4
2018-11-20T14:02:42.499Z,2.4
2018-11-20T14:03:49.443Z,2.4
2018-11-20T14:04:56.108Z,2.4
2018-11-20T14:06:03.344Z,2.4
2018-11-20T14:07:10.283Z,2.4
2018-11-20T14:08:17.227Z,2.4
2018-11-20T14:09:24.156Z,2.4
2018-11-20T14:10:31.096Z,2.4
2018-11-20T14:11:38.028Z,2.4
2018-11-20T14:12:45.255Z,2.4
2018-11-20T14:13:52.462Z,2.4
2018-11-20T14:14:59.409Z,2.4
2018-11-20T14:16:06.614Z,2.4
2018-11-20T14:17:13.566Z,2.4
2018-11-20T14:18:20.265Z,2.4
2018-11-20T14:19:27.494Z,2.4
2018-11-20T14:20:34.703Z,2.4
2018-11-20T14:21:41.925Z,2.4
2018-11-20T14:22:49.141Z,2.3
2018-11-20T14:23:56.083Z,2.4
2018-11-20T14:25:03.283Z,2.3
2018-11-20T14:26:09.957Z,2.3
2018-11-20T14:27:16.896Z,2.3
2018-11-20T14:28:24.159Z,2.3
2018-11-20T14:29:30.819Z,2.3
2018-11-20T14:30:37.759Z,2.3
2018-11-20T14:31:44.968Z,2.3
2018-11-20T14:32:51.910Z,2.3
2018-11-20T14:33:58.572Z,2.3
2018-11-20T14:35:05.801Z,2.3
2018-11-20T14:36:13.005Z,2.3
2018-11-20T14:37:20.225Z,2.3
2018-11-20T14:38:27.160Z,2.3
2018-11-20T14:39:33.839Z,2.3
2018-11-20T14:40:40.772Z,2.3
2018-11-20T14:41:47.714Z,2.3
2018-11-20T14:42:54.372Z,2.4
2018-11-20T14:44:01.601Z,2.4
2018-11-20T14:45:08.803Z,2.4
2018-11-20T14:46:16.021Z,2.4
2018-11-20T14:47:23.229Z,2.4
2018-11-20T14:48:30.174Z,2.4
2018-11-20T14:49:41.568Z,2.4
2018-11-20T14:50:48.800Z,2.4
2018-11-20T14:51:55.467Z,2.3
2018-11-20T14:53:02.257Z,2.3
2018-11-20T14:54:08.914Z,2.4
2018-11-20T14:55:16.132Z,2.3
2018-11-20T14:56:22.796Z,2.4
2018-11-20T14:57:29.728Z,2.4
2018-11-20T14:58:36.655Z,2.3
2018-11-20T14:59:43.608Z,2.3
2018-11-20T15:00:50.820Z,2.4
2018-11-20T15:01:58.039Z,2.3
2018-11-20T15:03:05.244Z,2.4
2018-11-20T15:04:12.184Z,2.3
2018-11-20T15:05:19.106Z,2.3
2018-11-20T15:06:26.329Z,2.3
2018-11-20T15:07:33.526Z,2.4
2018-11-20T15:08:40.465Z,2.3
2018-11-20T15:09:47.390Z,2.3
2018-11-20T15:10:54.064Z,2.4
2018-11-20T15:12:01.000Z,2.4
2018-11-20T15:13:07.670Z,2.4
2018-11-20T15:14:14.315Z,2.4
2018-11-20T15:15:21.032Z,2.4
2018-11-20T15:16:27.961Z,2.4
2018-11-20T15:17:34.926Z,2.4
2018-11-20T15:18:45.429Z,2.4
2018-11-20T15:19:52.700Z,2.4
2018-11-20T15:20:59.624Z,2.4
2018-11-20T15:22:06.865Z,2.4
2018-11-20T15:23:13.800Z,2.4
2018-11-20T15:24:21.018Z,2.4
2018-11-20T15:25:28.219Z,2.4
2018-11-20T15:26:35.434Z,2.4
2018-11-20T15:27:42.099Z,2.4
2018-11-20T15:28:49.048Z,2.4
2018-11-20T15:29:56.251Z,2.4
2018-11-20T15:31:03.336Z,2.4
2018-11-20T15:32:10.543Z,2.4
2018-11-20T15:33:17.211Z,2.4